createdAt,value
2019-03-28T00:02:56.485Z,6.93
2019-03-28T00:06:01.866Z,9.90
2019-03-28T00:09:08.547Z,9.60
2019-03-28T00:12:15.108Z,10.10
2019-03-28T00:15:20.558Z,7.77
2019-03-28T00:18:26.329Z,8.60
2019-03-28T00:21:32.028Z,10.63
2019-03-28T00:25:02.602Z,9.23
2019-03-28T00:28:11.458Z,9.40
2019-03-28T00:31:17.869Z,8.10
2019-03-28T00:34:24.907Z,10.43
2019-03-28T00:37:30.321Z,7.80
2019-03-28T00:40:35.846Z,8.30
2019-03-28T00:43:43.493Z,8.50
2019-03-28T00:46:49.188Z,9.57
2019-03-28T00:49:58.038Z,6.93
2019-03-28T00:53:03.437Z,10.13
2019-03-28T00:56:09.913Z,9.50
2019-03-28T00:59:15.509Z,8.50
2019-03-28T01:02:22.131Z,10.50
2019-03-28T01:05:27.881Z,10.20
2019-03-28T01:08:33.493Z,8.40
2019-03-28T01:11:38.993Z,9.60
2019-03-28T01:14:44.644Z,9.40
2019-03-28T01:17:50.036Z,10.70
2019-03-28T01:20:55.732Z,9.67
2019-03-28T01:24:01.531Z,11.33
2019-03-28T01:27:06.968Z,8.77
2019-03-28T01:30:12.461Z,8.60
2019-03-28T01:33:18.229Z,8.10
2019-03-28T01:36:23.968Z,7.40
2019-03-28T01:39:29.584Z,7.47
2019-03-28T01:42:35.039Z,9.10
2019-03-28T01:45:40.436Z,8.97
2019-03-28T01:48:45.968Z,8.23
2019-03-28T01:51:55.066Z,9.08
2019-03-28T01:55:00.553Z,8.77
2019-03-28T01:58:06.136Z,8.73
2019-03-28T02:01:15.246Z,10.57
2019-03-28T02:04:20.919Z,10.03
2019-03-28T02:07:26.195Z,8.00
2019-03-28T02:10:31.827Z,7.60
2019-03-28T02:13:37.320Z,8.90
2019-03-28T02:16:42.729Z,9.03
2019-03-28T02:19:48.463Z,8.17
2019-03-28T02:22:54.108Z,9.07
2019-03-28T02:25:59.871Z,8.90
2019-03-28T02:29:05.295Z,7.50
2019-03-28T02:32:10.545Z,7.33
2019-03-28T02:35:15.782Z,10.20
2019-03-28T02:38:21.058Z,10.23
2019-03-28T02:41:31.508Z,12.33
2019-03-28T02:44:37.533Z,8.07
2019-03-28T02:47:43.539Z,7.80
2019-03-28T02:50:49.113Z,6.87
2019-03-28T02:53:54.860Z,6.40
2019-03-28T02:57:00.433Z,7.33
2019-03-28T03:00:06.656Z,6.93
2019-03-28T03:03:12.178Z,7.03
2019-03-28T03:06:17.744Z,10.57
2019-03-28T03:09:23.453Z,8.20
2019-03-28T03:12:28.941Z,8.27
2019-03-28T03:15:34.546Z,7.13
2019-03-28T03:18:40.065Z,11.10
2019-03-28T03:21:45.439Z,8.03
2019-03-28T03:24:50.964Z,9.23
2019-03-28T03:27:59.002Z,9.53
2019-03-28T03:31:03.699Z,7.90
2019-03-28T03:34:09.277Z,8.60
2019-03-28T03:37:14.926Z,10.73
2019-03-28T03:40:20.366Z,8.13
2019-03-28T03:43:25.713Z,10.93
2019-03-28T03:46:31.032Z,9.77
2019-03-28T03:49:36.679Z,9.00
2019-03-28T03:52:42.181Z,8.57
2019-03-28T03:55:47.958Z,9.70
2019-03-28T03:58:53.657Z,8.37
2019-03-28T04:01:59.164Z,7.70
2019-03-28T04:05:05.490Z,9.67
2019-03-28T04:08:11.194Z,14.43
2019-03-28T04:11:16.677Z,11.60
2019-03-28T04:14:22.061Z,11.17
2019-03-28T04:17:27.615Z,9.00
2019-03-28T04:20:33.372Z,10.53
2019-03-28T04:23:38.878Z,9.43
2019-03-28T04:26:44.473Z,9.73
2019-03-28T04:29:50.206Z,10.53
2019-03-28T04:32:56.023Z,10.23
2019-03-28T04:36:01.577Z,9.73
2019-03-28T04:39:07.622Z,9.80
2019-03-28T04:42:13.008Z,7.07
2019-03-28T04:45:18.605Z,7.40
2019-03-28T04:48:24.097Z,7.83
2019-03-28T04:51:29.481Z,7.50
2019-03-28T04:54:35.053Z,7.47
2019-03-28T04:57:41.227Z,10.13
2019-03-28T05:00:47.406Z,9.20
2019-03-28T05:03:53.139Z,9.03
2019-03-28T05:06:58.677Z,12.00
2019-03-28T05:10:04.192Z,10.90
2019-03-28T05:13:09.601Z,8.37
2019-03-28T05:16:15.434Z,12.40
2019-03-28T05:19:20.873Z,8.80
2019-03-28T05:22:26.318Z,11.40
2019-03-28T05:25:32.065Z,9.50
2019-03-28T05:28:37.744Z,7.37
2019-03-28T05:31:43.285Z,8.37
2019-03-28T05:34:49.066Z,8.83
2019-03-28T05:37:54.585Z,9.83
2019-03-28T05:40:59.949Z,10.60
2019-03-28T05:44:05.495Z,13.40
2019-03-28T05:47:10.875Z,8.00
2019-03-28T05:50:16.407Z,8.27
2019-03-28T05:53:21.785Z,8.20
2019-03-28T05:56:27.273Z,10.77
2019-03-28T05:59:33.082Z,8.20
2019-03-28T06:02:38.789Z,15.03
2019-03-28T06:05:44.245Z,12.57
2019-03-28T06:08:49.677Z,9.43
2019-03-28T06:11:55.123Z,8.77
2019-03-28T06:15:00.625Z,11.40
2019-03-28T06:18:06.163Z,10.73
2019-03-28T06:21:11.935Z,10.80
2019-03-28T06:24:17.427Z,10.83
2019-03-28T06:27:41.587Z,10.37
2019-03-28T06:30:47.307Z,11.83
2019-03-28T06:33:53.154Z,11.83
2019-03-28T06:36:59.049Z,9.83
2019-03-28T06:40:05.522Z,9.53
2019-03-28T06:43:11.326Z,9.63
2019-03-28T06:46:35.536Z,11.27
2019-03-28T06:49:40.729Z,9.47
2019-03-28T06:52:46.628Z,13.93
2019-03-28T06:56:02.626Z,9.33
2019-03-28T06:59:08.201Z,8.80
2019-03-28T07:02:13.724Z,9.53
2019-03-28T07:05:19.212Z,9.50
2019-03-28T07:08:25.389Z,12.47
2019-03-28T07:11:31.110Z,10.50
2019-03-28T07:14:36.675Z,15.00
2019-03-28T07:17:44.052Z,10.27
2019-03-28T07:20:49.905Z,11.67
2019-03-28T07:23:55.384Z,11.13
2019-03-28T07:27:01.121Z,20.70
2019-03-28T07:30:16.501Z,14.70
2019-03-28T07:33:22.246Z,14.00
2019-03-28T07:36:27.816Z,14.30
2019-03-28T07:39:33.487Z,18.07
2019-03-28T07:42:39.094Z,17.10
2019-03-28T07:45:53.320Z,15.43
2019-03-28T07:48:58.790Z,13.57
2019-03-28T07:52:04.607Z,12.80
2019-03-28T07:55:10.611Z,14.60
2019-03-28T07:58:16.084Z,14.63
2019-03-28T08:01:21.637Z,12.93
2019-03-28T08:04:27.415Z,12.10
2019-03-28T08:07:44.349Z,11.73
2019-03-28T08:10:40.566Z,12.70
2019-03-28T08:13:47.930Z,15.27
2019-03-28T08:16:55.358Z,12.70
2019-03-28T08:20:01.001Z,12.43
2019-03-28T08:23:06.470Z,12.30
2019-03-28T08:26:12.056Z,11.23
2019-03-28T08:29:17.548Z,13.10
2019-03-28T08:32:25.768Z,18.83
2019-03-28T08:35:32.558Z,14.23
2019-03-28T08:38:40.181Z,13.13
2019-03-28T08:41:48.700Z,14.33
2019-03-28T08:44:53.723Z,14.60
2019-03-28T08:48:00.111Z,16.97
2019-03-28T08:51:07.133Z,18.77
2019-03-28T08:54:15.808Z,18.00
2019-03-28T08:57:21.756Z,10.70
2019-03-28T09:03:53.024Z,23.40
2019-03-28T09:06:58.796Z,17.20
2019-03-28T09:10:04.932Z,23.93
2019-03-28T09:13:10.643Z,15.50
2019-03-28T09:16:16.077Z,14.17
2019-03-28T09:22:45.096Z,18.20
2019-03-28T09:25:50.723Z,13.53
2019-03-28T09:28:56.323Z,13.33
2019-03-28T09:32:01.827Z,20.43
2019-03-28T09:35:07.899Z,14.90
2019-03-28T09:38:13.498Z,15.10
2019-03-28T09:41:19.186Z,16.20
2019-03-28T09:44:24.867Z,16.63
2019-03-28T09:47:30.729Z,12.50
2019-03-28T09:50:36.270Z,15.43
2019-03-28T09:53:44.651Z,15.07
2019-03-28T09:56:50.359Z,18.30
2019-03-28T09:59:56.079Z,14.27
2019-03-28T10:03:02.835Z,16.40
2019-03-28T10:06:08.374Z,11.60
2019-03-28T10:09:13.955Z,11.87
2019-03-28T10:12:19.485Z,13.53
2019-03-28T10:15:24.868Z,11.17
2019-03-28T10:18:30.484Z,12.03
2019-03-28T10:21:37.486Z,10.77
2019-03-28T10:24:43.130Z,9.83
2019-03-28T10:27:49.093Z,12.10
2019-03-28T10:30:54.712Z,8.50
2019-03-28T10:34:05.550Z,12.03
2019-03-28T10:37:11.260Z,8.77
2019-03-28T10:40:16.861Z,8.80
2019-03-28T10:43:22.404Z,9.00
2019-03-28T10:46:28.024Z,9.43
2019-03-28T10:49:33.801Z,8.47
2019-03-28T10:52:39.757Z,10.20
2019-03-28T10:55:45.189Z,8.30
2019-03-28T10:58:51.066Z,8.80
2019-03-28T11:01:56.721Z,8.13
2019-03-28T11:05:02.240Z,9.43
2019-03-28T11:08:07.844Z,9.10
2019-03-28T11:11:13.325Z,11.87
2019-03-28T11:14:19.051Z,6.90
2019-03-28T11:17:25.054Z,6.33
2019-03-28T11:20:30.961Z,7.97
2019-03-28T11:23:36.577Z,8.10
2019-03-28T11:26:42.074Z,15.43
2019-03-28T11:29:48.049Z,6.80
2019-03-28T11:32:53.657Z,14.10
2019-03-28T11:35:59.398Z,7.33
2019-03-28T11:39:07.653Z,5.70
2019-03-28T11:42:13.281Z,5.53
2019-03-28T11:45:19.074Z,5.50
2019-03-28T11:48:24.934Z,14.87
2019-03-28T11:51:30.766Z,7.40
2019-03-28T11:54:36.530Z,3.90
2019-03-28T11:57:42.086Z,5.13
2019-03-28T12:00:49.041Z,3.73
2019-03-28T12:03:54.967Z,4.97
2019-03-28T12:07:00.720Z,4.30
2019-03-28T12:10:08.392Z,4.57
2019-03-28T12:13:14.147Z,4.90
2019-03-28T12:16:20.065Z,5.20
2019-03-28T12:19:25.614Z,5.60
2019-03-28T12:22:31.109Z,3.60
2019-03-28T12:25:36.983Z,3.57
2019-03-28T12:28:42.831Z,3.57
2019-03-28T12:31:49.627Z,4.60
2019-03-28T12:34:55.265Z,2.73
2019-03-28T12:38:00.816Z,3.47
2019-03-28T12:41:06.368Z,2.83
2019-03-28T12:44:12.248Z,4.17
2019-03-28T12:47:17.645Z,5.30
2019-03-28T12:50:23.202Z,6.10
2019-03-28T12:53:30.998Z,5.70
2019-03-28T12:56:36.783Z,4.80
2019-03-28T12:59:42.844Z,4.93
2019-03-28T13:02:48.379Z,4.70
2019-03-28T13:05:54.005Z,5.30
2019-03-28T13:08:59.366Z,5.17
2019-03-28T13:12:04.871Z,11.20
2019-03-28T13:15:10.785Z,5.07
2019-03-28T13:18:16.513Z,9.70
2019-03-28T13:21:22.348Z,5.40
2019-03-28T13:24:27.973Z,5.67
2019-03-28T13:27:34.764Z,6.53
2019-03-28T13:30:40.838Z,6.13
2019-03-28T13:33:46.483Z,6.07
2019-03-28T13:36:52.126Z,5.00
2019-03-28T13:39:57.551Z,5.00
2019-03-28T13:43:05.099Z,5.63
2019-03-28T13:46:10.477Z,5.17
2019-03-28T13:49:15.909Z,5.83
2019-03-28T13:52:21.417Z,4.23
2019-03-28T13:55:27.036Z,5.73
2019-03-28T13:58:34.950Z,3.43
2019-03-28T14:01:40.513Z,4.13
2019-03-28T14:04:45.857Z,3.50
2019-03-28T14:07:51.435Z,3.37
2019-03-28T14:10:57.036Z,5.03
2019-03-28T14:14:02.652Z,4.00
2019-03-28T14:17:08.383Z,3.97
2019-03-28T14:20:14.321Z,3.30
2019-03-28T14:23:21.264Z,4.20
2019-03-28T14:26:27.172Z,4.77
2019-03-28T14:29:32.856Z,3.77
2019-03-28T14:32:52.509Z,4.90
2019-03-28T14:35:47.162Z,4.20
2019-03-28T14:38:52.675Z,3.30
2019-03-28T14:41:58.481Z,4.80
2019-03-28T14:45:04.439Z,4.00
2019-03-28T14:48:09.881Z,8.53
2019-03-28T14:51:15.689Z,4.63
2019-03-28T14:54:22.695Z,5.97
2019-03-28T14:57:28.682Z,5.43
2019-03-28T15:00:53.404Z,3.50
2019-03-28T15:03:58.909Z,4.43
2019-03-28T15:07:07.211Z,3.13
2019-03-28T15:10:13.221Z,4.67
2019-03-28T15:13:18.827Z,3.40
2019-03-28T15:16:24.331Z,4.43
2019-03-28T15:19:29.811Z,4.30
2019-03-28T15:22:35.355Z,4.20
2019-03-28T15:25:41.243Z,4.50
2019-03-28T15:28:46.717Z,3.73
2019-03-28T15:31:52.269Z,5.37
2019-03-28T15:34:58.076Z,3.40
2019-03-28T15:38:03.935Z,3.63
2019-03-28T15:41:12.496Z,3.13
2019-03-28T15:44:18.245Z,4.33
2019-03-28T15:47:25.188Z,5.37
2019-03-28T15:50:31.105Z,3.50
2019-03-28T15:53:36.735Z,6.20
2019-03-28T15:56:42.193Z,2.53
2019-03-28T15:59:47.688Z,3.73
2019-03-28T16:02:53.270Z,2.80
2019-03-28T16:05:59.271Z,2.80
2019-03-28T16:09:06.640Z,3.53
2019-03-28T16:12:12.196Z,5.53
2019-03-28T16:15:17.909Z,7.87
2019-03-28T16:18:29.453Z,3.83
2019-03-28T16:21:35.191Z,3.53
2019-03-28T16:24:40.941Z,3.10
2019-03-28T16:27:46.857Z,3.07
2019-03-28T16:30:52.358Z,2.67
2019-03-28T16:34:06.754Z,4.50
2019-03-28T16:37:05.385Z,2.70
2019-03-28T16:40:11.357Z,2.20
2019-03-28T16:43:17.260Z,2.83
2019-03-28T16:46:22.963Z,5.83
2019-03-28T16:49:28.589Z,4.90
2019-03-28T16:52:34.109Z,3.80
2019-03-28T16:55:39.926Z,4.10
2019-03-28T16:58:45.884Z,5.37
2019-03-28T17:01:51.615Z,4.87
2019-03-28T17:04:57.292Z,7.57
2019-03-28T17:08:04.511Z,14.03
2019-03-28T17:11:12.149Z,6.03
2019-03-28T17:14:17.345Z,3.00
2019-03-28T17:17:24.569Z,2.80
2019-03-28T17:20:30.051Z,2.17
2019-03-28T17:23:35.696Z,2.80
2019-03-28T17:26:41.443Z,2.60
2019-03-28T17:29:47.030Z,3.27
2019-03-28T17:32:52.741Z,2.77
2019-03-28T17:35:58.316Z,2.77
2019-03-28T17:39:05.713Z,3.17
2019-03-28T17:42:11.759Z,4.07
2019-03-28T17:45:17.621Z,2.43
2019-03-28T17:48:23.235Z,2.63
2019-03-28T17:51:28.711Z,4.23
2019-03-28T17:54:34.305Z,3.77
2019-03-28T17:57:39.916Z,4.00
2019-03-28T18:00:47.398Z,7.70
2019-03-28T18:03:53.263Z,11.40
2019-03-28T18:06:58.835Z,5.73
2019-03-28T18:10:04.562Z,5.47
2019-03-28T18:13:10.226Z,7.67
2019-03-28T18:16:16.392Z,5.90
2019-03-28T18:19:22.024Z,5.30
2019-03-28T18:22:28.178Z,4.47
2019-03-28T18:25:34.001Z,3.70
2019-03-28T18:28:42.373Z,4.63
2019-03-28T18:31:50.768Z,4.20
2019-03-28T18:35:05.031Z,4.20
2019-03-28T18:38:02.300Z,4.07
2019-03-28T18:41:07.848Z,6.00
2019-03-28T18:44:13.346Z,5.20
2019-03-28T18:47:21.800Z,4.83
2019-03-28T18:50:27.896Z,5.10
2019-03-28T18:53:33.470Z,6.43
2019-03-28T18:56:39.464Z,5.10
2019-03-28T18:59:45.078Z,5.33
2019-03-28T19:02:50.574Z,5.10
2019-03-28T19:05:57.989Z,6.90
2019-03-28T19:09:04.079Z,5.60
2019-03-28T19:12:09.974Z,5.90
2019-03-28T19:15:15.664Z,6.00
2019-03-28T19:18:21.374Z,4.90
2019-03-28T19:21:27.799Z,5.90
2019-03-28T19:24:33.416Z,12.97
2019-03-28T19:27:39.093Z,25.03
2019-03-28T19:30:44.780Z,8.83
2019-03-28T19:33:50.264Z,6.87
2019-03-28T19:36:56.806Z,14.65
2019-03-28T19:40:03.020Z,8.50
2019-03-28T19:43:20.623Z,8.40
2019-03-28T19:46:17.154Z,7.90
2019-03-28T19:49:23.487Z,9.53
2019-03-28T19:52:29.467Z,9.97
2019-03-28T19:55:35.409Z,7.70
2019-03-28T19:58:40.971Z,7.13
2019-03-28T20:01:46.986Z,7.00
2019-03-28T20:04:52.945Z,7.00
2019-03-28T20:07:58.466Z,5.07
2019-03-28T20:11:04.652Z,6.60
2019-03-28T20:14:11.204Z,5.97
2019-03-28T20:17:17.726Z,5.63
2019-03-28T20:20:23.721Z,4.93
2019-03-28T20:23:29.269Z,5.80
2019-03-28T20:26:35.533Z,6.47
2019-03-28T20:29:41.391Z,5.10
2019-03-28T20:32:48.345Z,7.33
2019-03-28T20:36:11.495Z,10.30
2019-03-28T20:39:04.361Z,13.43
2019-03-28T20:42:08.950Z,11.93
2019-03-28T20:45:16.792Z,8.60
2019-03-28T20:48:22.676Z,8.50
2019-03-28T20:51:28.439Z,9.63
2019-03-28T20:54:34.227Z,6.43
2019-03-28T20:57:40.558Z,10.50
2019-03-28T21:00:47.481Z,8.00
2019-03-28T21:03:53.707Z,11.77
2019-03-28T21:06:59.420Z,5.20
2019-03-28T21:10:06.428Z,13.40
2019-03-28T21:13:12.120Z,7.97
2019-03-28T21:16:17.750Z,6.80
2019-03-28T21:19:23.550Z,11.03
2019-03-28T21:22:29.433Z,7.00
2019-03-28T21:25:34.962Z,8.00
2019-03-28T21:28:47.234Z,8.67
2019-03-28T21:31:50.181Z,8.50
2019-03-28T21:34:58.289Z,8.47
2019-03-28T21:38:05.487Z,7.77
2019-03-28T21:41:13.418Z,7.50
2019-03-28T21:44:19.110Z,9.23
2019-03-28T21:47:24.810Z,7.90
2019-03-28T21:50:30.808Z,6.63
2019-03-28T21:53:42.118Z,8.00
2019-03-28T21:56:47.471Z,8.37
2019-03-28T21:59:53.205Z,11.10
2019-03-28T22:02:58.900Z,7.53
2019-03-28T22:06:04.402Z,10.30
2019-03-28T22:09:10.476Z,9.70
2019-03-28T22:12:16.174Z,10.33
2019-03-28T22:15:22.088Z,10.50
2019-03-28T22:18:27.988Z,8.13
2019-03-28T22:21:33.608Z,7.40
2019-03-28T22:24:43.993Z,7.27
2019-03-28T22:27:51.457Z,8.00
2019-03-28T22:30:57.278Z,7.63
2019-03-28T22:34:02.875Z,7.80
2019-03-28T22:37:08.689Z,6.10
2019-03-28T22:40:14.270Z,8.10
2019-03-28T22:43:20.009Z,5.40
2019-03-28T22:46:25.625Z,5.40
2019-03-28T22:49:32.329Z,4.63
2019-03-28T22:52:38.127Z,4.10
2019-03-28T22:55:46.546Z,5.00
2019-03-28T22:58:52.296Z,3.77
2019-03-28T23:01:58.047Z,3.67
2019-03-28T23:05:04.338Z,3.30
2019-03-28T23:08:10.748Z,5.40
2019-03-28T23:11:18.002Z,5.30
2019-03-28T23:14:24.973Z,4.30
2019-03-28T23:17:30.533Z,3.80
2019-03-28T23:20:36.050Z,3.80
2019-03-28T23:23:42.841Z,3.60
2019-03-28T23:26:48.569Z,2.77
2019-03-28T23:29:54.000Z,3.40
2019-03-28T23:32:59.629Z,3.60
2019-03-28T23:36:05.269Z,3.30
2019-03-28T23:39:14.261Z,4.50
2019-03-28T23:42:19.721Z,3.60
2019-03-28T23:45:25.158Z,3.77
2019-03-28T23:48:30.943Z,4.30
2019-03-28T23:51:42.513Z,3.40
2019-03-28T23:54:48.376Z,5.23
2019-03-28T23:57:54.541Z,4.60
